sensor_id;sensor_type;location;lat;lon;timestamp;P1;durP1;ratioP1;P2;durP2;ratioP2
18114;SDS011;9184;54.390;18.620;2022-09-13T00:00:19;30.27;;;19.30;;
18114;SDS011;9184;54.390;18.620;2022-09-13T00:00:51;26.60;;;18.02;;
18114;SDS011;9184;54.390;18.620;2022-09-13T00:01:25;26.75;;;17.00;;
18114;SDS011;9184;54.390;18.620;2022-09-13T00:01:55;24.77;;;17.52;;
18114;SDS011;9184;54.390;18.620;2022-09-13T00:02:27;23.02;;;17.42;;
18114;SDS011;9184;54.390;18.620;2022-09-13T00:02:57;23.83;;;17.13;;
18114;SDS011;9184;54.390;18.620;2022-09-13T00:03:28;23.05;;;17.15;;
18114;SDS011;9184;54.390;18.620;2022-09-13T00:03:59;22.13;;;17.75;;
18114;SDS011;9184;54.390;18.620;2022-09-13T00:04:31;24.52;;;17.60;;
18114;SDS011;9184;54.390;18.620;2022-09-13T00:05:02;24.30;;;17.45;;
18114;SDS011;9184;54.390;18.620;2022-09-13T00:05:32;22.92;;;17.38;;
18114;SDS011;9184;54.390;18.620;2022-09-13T00:06:09;21.48;;;16.80;;
18114;SDS011;9184;54.390;18.620;2022-09-13T00:06:40;20.73;;;16.25;;
18114;SDS011;9184;54.390;18.620;2022-09-13T00:07:10;21.90;;;17.05;;
18114;SDS011;9184;54.390;18.620;2022-09-13T00:07:41;29.20;;;16.77;;
18114;SDS011;9184;54.390;18.620;2022-09-13T00:08:12;23.13;;;16.52;;
18114;SDS011;9184;54.390;18.620;2022-09-13T00:08:43;26.48;;;17.02;;
18114;SDS011;9184;54.390;18.620;2022-09-13T00:09:16;25.92;;;17.23;;
18114;SDS011;9184;54.390;18.620;2022-09-13T00:09:47;26.92;;;17.88;;
18114;SDS011;9184;54.390;18.620;2022-09-13T00:10:17;25.70;;;17.73;;
18114;SDS011;9184;54.390;18.620;2022-09-13T00:10:48;23.15;;;17.02;;
18114;SDS011;9184;54.390;18.620;2022-09-13T00:11:19;25.38;;;17.77;;
18114;SDS011;9184;54.390;18.620;2022-09-13T00:11:50;25.30;;;17.45;;
18114;SDS011;9184;54.390;18.620;2022-09-13T00:12:22;22.67;;;16.95;;
18114;SDS011;9184;54.390;18.620;2022-09-13T00:12:53;25.35;;;17.35;;
18114;SDS011;9184;54.390;18.620;2022-09-13T00:13:23;28.08;;;18.95;;
18114;SDS011;9184;54.390;18.620;2022-09-13T00:13:55;20.52;;;16.55;;
18114;SDS011;9184;54.390;18.620;2022-09-13T00:14:25;23.60;;;17.20;;
18114;SDS011;9184;54.390;18.620;2022-09-13T00:14:56;22.10;;;17.08;;
18114;SDS011;9184;54.390;18.620;2022-09-13T00:15:27;22.40;;;16.80;;
18114;SDS011;9184;54.390;18.620;2022-09-13T00:15:58;22.60;;;17.17;;
18114;SDS011;9184;54.390;18.620;2022-09-13T00:16:31;24.48;;;16.95;;
18114;SDS011;9184;54.390;18.620;2022-09-13T00:17:03;25.55;;;17.42;;
18114;SDS011;9184;54.390;18.620;2022-09-13T00:17:33;23.77;;;16.63;;
18114;SDS011;9184;54.390;18.620;2022-09-13T00:18:04;25.00;;;17.60;;
18114;SDS011;9184;54.390;18.620;2022-09-13T00:18:34;25.85;;;17.95;;
18114;SDS011;9184;54.390;18.620;2022-09-13T00:19:05;23.08;;;17.38;;
18114;SDS011;9184;54.390;18.620;2022-09-13T00:19:37;23.35;;;17.33;;
18114;SDS011;9184;54.390;18.620;2022-09-13T00:20:08;22.88;;;17.23;;
18114;SDS011;9184;54.390;18.620;2022-09-13T00:20:40;31.88;;;16.92;;
18114;SDS011;9184;54.390;18.620;2022-09-13T00:21:11;27.88;;;16.85;;
18114;SDS011;9184;54.390;18.620;2022-09-13T00:21:42;25.20;;;17.73;;
18114;SDS011;9184;54.390;18.620;2022-09-13T00:22:13;25.15;;;17.45;;
18114;SDS011;9184;54.390;18.620;2022-09-13T00:22:44;22.23;;;17.17;;
18114;SDS011;9184;54.390;18.620;2022-09-13T00:23:14;28.58;;;18.25;;
18114;SDS011;9184;54.390;18.620;2022-09-13T00:23:47;24.40;;;17.85;;
18114;SDS011;9184;54.390;18.620;2022-09-13T00:24:18;27.17;;;17.33;;
18114;SDS011;9184;54.390;18.620;2022-09-13T00:24:49;26.63;;;17.45;;
18114;SDS011;9184;54.390;18.620;2022-09-13T00:25:20;25.95;;;17.95;;
18114;SDS011;9184;54.390;18.620;2022-09-13T00:25:50;24.25;;;17.85;;
18114;SDS011;9184;54.390;18.620;2022-09-13T00:26:23;23.05;;;16.80;;
18114;SDS011;9184;54.390;18.620;2022-09-13T00:26:53;28.23;;;17.60;;
18114;SDS011;9184;54.390;18.620;2022-09-13T00:27:24;23.50;;;17.73;;
18114;SDS011;9184;54.390;18.620;2022-09-13T00:27:55;28.55;;;17.33;;
18114;SDS011;9184;54.390;18.620;2022-09-13T00:28:25;25.33;;;17.27;;
18114;SDS011;9184;54.390;18.620;2022-09-13T00:28:56;26.98;;;18.30;;
18114;SDS011;9184;54.390;18.620;2022-09-13T00:29:28;25.77;;;17.30;;
18114;SDS011;9184;54.390;18.620;2022-09-13T00:29:59;24.20;;;17.48;;
18114;SDS011;9184;54.390;18.620;2022-09-13T00:30:29;23.75;;;16.83;;
18114;SDS011;9184;54.390;18.620;2022-09-13T00:30:59;28.70;;;17.70;;
18114;SDS011;9184;54.390;18.620;2022-09-13T00:31:31;23.58;;;16.15;;
18114;SDS011;9184;54.390;18.620;2022-09-13T00:32:01;21.42;;;16.52;;
18114;SDS011;9184;54.390;18.620;2022-09-13T00:32:32;24.25;;;17.35;;
18114;SDS011;9184;54.390;18.620;2022-09-13T00:33:04;31.67;;;17.75;;
18114;SDS011;9184;54.390;18.620;2022-09-13T00:33:35;26.23;;;16.98;;
18114;SDS011;9184;54.390;18.620;2022-09-13T00:34:05;25.83;;;17.88;;
18114;SDS011;9184;54.390;18.620;2022-09-13T00:34:38;26.83;;;18.38;;
18114;SDS011;9184;54.390;18.620;2022-09-13T00:35:09;23.27;;;17.23;;
18114;SDS011;9184;54.390;18.620;2022-09-13T00:35:39;24.77;;;16.85;;
18114;SDS011;9184;54.390;18.620;2022-09-13T00:36:11;26.05;;;17.60;;
18114;SDS011;9184;54.390;18.620;2022-09-13T00:36:41;27.17;;;18.58;;
18114;SDS011;9184;54.390;18.620;2022-09-13T00:37:12;24.85;;;18.55;;
18114;SDS011;9184;54.390;18.620;2022-09-13T00:37:42;30.95;;;18.13;;
18114;SDS011;9184;54.390;18.620;2022-09-13T00:38:13;28.63;;;19.23;;
18114;SDS011;9184;54.390;18.620;2022-09-13T00:38:44;24.15;;;17.42;;
18114;SDS011;9184;54.390;18.620;2022-09-13T00:39:14;26.90;;;18.25;;
18114;SDS011;9184;54.390;18.620;2022-09-13T00:39:45;24.98;;;16.95;;
18114;SDS011;9184;54.390;18.620;2022-09-13T00:40:16;24.88;;;16.85;;
18114;SDS011;9184;54.390;18.620;2022-09-13T00:40:46;25.45;;;17.48;;
18114;SDS011;9184;54.390;18.620;2022-09-13T00:41:17;26.05;;;18.40;;
18114;SDS011;9184;54.390;18.620;2022-09-13T00:41:49;26.88;;;17.55;;
18114;SDS011;9184;54.390;18.620;2022-09-13T00:42:23;25.20;;;18.10;;
18114;SDS011;9184;54.390;18.620;2022-09-13T00:42:53;22.42;;;16.15;;
18114;SDS011;9184;54.390;18.620;2022-09-13T00:43:39;22.60;;;17.52;;
18114;SDS011;9184;54.390;18.620;2022-09-13T00:44:56;25.73;;;16.60;;
18114;SDS011;9184;54.390;18.620;2022-09-13T00:45:27;23.77;;;17.30;;
18114;SDS011;9184;54.390;18.620;2022-09-13T00:45:58;24.08;;;16.80;;
18114;SDS011;9184;54.390;18.620;2022-09-13T00:46:31;26.15;;;17.17;;
18114;SDS011;9184;54.390;18.620;2022-09-13T00:47:03;29.27;;;17.40;;
18114;SDS011;9184;54.390;18.620;2022-09-13T00:47:35;25.83;;;17.10;;
18114;SDS011;9184;54.390;18.620;2022-09-13T00:48:07;25.42;;;16.55;;
18114;SDS011;9184;54.390;18.620;2022-09-13T00:48:41;26.15;;;16.33;;
18114;SDS011;9184;54.390;18.620;2022-09-13T00:49:15;21.80;;;16.63;;
18114;SDS011;9184;54.390;18.620;2022-09-13T00:49:49;21.15;;;16.48;;
18114;SDS011;9184;54.390;18.620;2022-09-13T00:50:22;24.30;;;15.98;;
18114;SDS011;9184;54.390;18.620;2022-09-13T00:50:54;29.35;;;16.27;;
18114;SDS011;9184;54.390;18.620;2022-09-13T00:51:26;23.55;;;16.60;;
18114;SDS011;9184;54.390;18.620;2022-09-13T00:51:57;27.45;;;18.02;;
18114;SDS011;9184;54.390;18.620;2022-09-13T00:52:28;25.83;;;17.48;;
18114;SDS011;9184;54.390;18.620;2022-09-13T00:53:02;26.08;;;16.33;;
18114;SDS011;9184;54.390;18.620;2022-09-13T00:53:35;23.92;;;17.00;;
18114;SDS011;9184;54.390;18.620;2022-09-13T00:54:06;23.52;;;17.15;;
18114;SDS011;9184;54.390;18.620;2022-09-13T00:54:38;24.20;;;16.45;;
18114;SDS011;9184;54.390;18.620;2022-09-13T00:55:10;25.13;;;17.05;;
18114;SDS011;9184;54.390;18.620;2022-09-13T00:55:43;23.95;;;16.88;;
18114;SDS011;9184;54.390;18.620;2022-09-13T00:56:17;23.58;;;16.27;;
18114;SDS011;9184;54.390;18.620;2022-09-13T00:56:49;23.13;;;16.70;;
18114;SDS011;9184;54.390;18.620;2022-09-13T00:57:21;26.67;;;16.15;;
18114;SDS011;9184;54.390;18.620;2022-09-13T00:57:54;22.25;;;16.88;;
18114;SDS011;9184;54.390;18.620;2022-09-13T00:58:30;25.90;;;16.85;;
18114;SDS011;9184;54.390;18.620;2022-09-13T00:59:03;26.40;;;16.98;;
18114;SDS011;9184;54.390;18.620;2022-09-13T00:59:38;24.08;;;16.75;;
18114;SDS011;9184;54.390;18.620;2022-09-13T01:00:10;25.13;;;17.55;;
18114;SDS011;9184;54.390;18.620;2022-09-13T01:00:42;23.85;;;17.02;;
18114;SDS011;9184;54.390;18.620;2022-09-13T01:01:14;23.70;;;17.42;;
18114;SDS011;9184;54.390;18.620;2022-09-13T01:01:45;29.55;;;16.60;;
18114;SDS011;9184;54.390;18.620;2022-09-13T01:02:16;29.25;;;17.38;;
18114;SDS011;9184;54.390;18.620;2022-09-13T01:02:49;23.88;;;16.90;;
18114;SDS011;9184;54.390;18.620;2022-09-13T01:03:20;26.40;;;18.10;;
18114;SDS011;9184;54.390;18.620;2022-09-13T01:03:51;25.60;;;17.38;;
18114;SDS011;9184;54.390;18.620;2022-09-13T01:04:23;29.23;;;18.00;;
18114;SDS011;9184;54.390;18.620;2022-09-13T01:04:57;27.40;;;18.20;;
18114;SDS011;9184;54.390;18.620;2022-09-13T01:05:29;24.25;;;17.23;;
18114;SDS011;9184;54.390;18.620;2022-09-13T01:06:02;27.02;;;17.33;;
18114;SDS011;9184;54.390;18.620;2022-09-13T01:06:37;26.20;;;18.67;;
18114;SDS011;9184;54.390;18.620;2022-09-13T01:07:09;26.10;;;17.35;;
18114;SDS011;9184;54.390;18.620;2022-09-13T01:07:40;27.00;;;17.50;;
18114;SDS011;9184;54.390;18.620;2022-09-13T01:08:12;24.80;;;17.95;;
18114;SDS011;9184;54.390;18.620;2022-09-13T01:08:51;23.92;;;16.52;;
18114;SDS011;9184;54.390;18.620;2022-09-13T01:09:22;25.75;;;17.67;;
18114;SDS011;9184;54.390;18.620;2022-09-13T01:09:53;29.65;;;17.73;;
18114;SDS011;9184;54.390;18.620;2022-09-13T01:10:25;25.95;;;18.30;;
18114;SDS011;9184;54.390;18.620;2022-09-13T01:10:56;29.00;;;18.00;;
18114;SDS011;9184;54.390;18.620;2022-09-13T01:11:29;24.73;;;16.73;;
18114;SDS011;9184;54.390;18.620;2022-09-13T01:12:02;24.70;;;17.30;;
18114;SDS011;9184;54.390;18.620;2022-09-13T01:12:40;26.92;;;17.40;;
18114;SDS011;9184;54.390;18.620;2022-09-13T01:13:15;27.88;;;17.70;;
18114;SDS011;9184;54.390;18.620;2022-09-13T01:13:47;23.63;;;17.38;;
18114;SDS011;9184;54.390;18.620;2022-09-13T01:14:20;25.30;;;16.42;;
18114;SDS011;9184;54.390;18.620;2022-09-13T01:14:51;26.35;;;16.42;;
18114;SDS011;9184;54.390;18.620;2022-09-13T01:15:22;26.05;;;17.77;;
18114;SDS011;9184;54.390;18.620;2022-09-13T01:15:53;23.67;;;17.10;;
18114;SDS011;9184;54.390;18.620;2022-09-13T01:16:24;26.35;;;18.02;;
18114;SDS011;9184;54.390;18.620;2022-09-13T01:16:55;24.13;;;16.88;;
18114;SDS011;9184;54.390;18.620;2022-09-13T01:17:26;24.88;;;17.08;;
18114;SDS011;9184;54.390;18.620;2022-09-13T01:17:58;23.77;;;18.38;;
18114;SDS011;9184;54.390;18.620;2022-09-13T01:18:29;25.02;;;17.85;;
18114;SDS011;9184;54.390;18.620;2022-09-13T01:19:00;21.45;;;15.95;;
18114;SDS011;9184;54.390;18.620;2022-09-13T01:19:31;21.88;;;15.93;;
18114;SDS011;9184;54.390;18.620;2022-09-13T01:20:03;20.90;;;15.70;;
18114;SDS011;9184;54.390;18.620;2022-09-13T01:20:39;23.58;;;15.88;;
18114;SDS011;9184;54.390;18.620;2022-09-13T01:21:26;21.73;;;15.23;;
18114;SDS011;9184;54.390;18.620;2022-09-13T01:22:07;24.30;;;16.70;;
18114;SDS011;9184;54.390;18.620;2022-09-13T01:23:52;19.20;;;15.13;;
18114;SDS011;9184;54.390;18.620;2022-09-13T01:24:40;22.08;;;16.55;;
18114;SDS011;9184;54.390;18.620;2022-09-13T01:25:22;26.35;;;16.58;;
18114;SDS011;9184;54.390;18.620;2022-09-13T01:26:04;23.00;;;15.02;;
18114;SDS011;9184;54.390;18.620;2022-09-13T01:26:47;20.77;;;15.30;;
18114;SDS011;9184;54.390;18.620;2022-09-13T01:27:32;20.85;;;15.63;;
18114;SDS011;9184;54.390;18.620;2022-09-13T01:28:14;23.65;;;16.10;;
18114;SDS011;9184;54.390;18.620;2022-09-13T01:28:52;23.48;;;15.70;;
18114;SDS011;9184;54.390;18.620;2022-09-13T01:29:42;26.63;;;16.33;;
18114;SDS011;9184;54.390;18.620;2022-09-13T01:30:19;23.20;;;16.00;;
18114;SDS011;9184;54.390;18.620;2022-09-13T01:30:50;23.42;;;15.55;;
18114;SDS011;9184;54.390;18.620;2022-09-13T01:31:25;23.10;;;16.48;;
18114;SDS011;9184;54.390;18.620;2022-09-13T01:32:03;21.58;;;15.93;;
18114;SDS011;9184;54.390;18.620;2022-09-13T01:32:39;25.75;;;17.45;;
18114;SDS011;9184;54.390;18.620;2022-09-13T01:33:23;23.73;;;16.35;;
18114;SDS011;9184;54.390;18.620;2022-09-13T01:33:59;25.20;;;16.85;;
18114;SDS011;9184;54.390;18.620;2022-09-13T01:34:36;23.67;;;16.52;;
18114;SDS011;9184;54.390;18.620;2022-09-13T01:35:12;31.42;;;18.30;;
18114;SDS011;9184;54.390;18.620;2022-09-13T01:35:48;25.60;;;17.67;;
18114;SDS011;9184;54.390;18.620;2022-09-13T01:36:35;28.67;;;16.95;;
18114;SDS011;9184;54.390;18.620;2022-09-13T01:37:15;24.60;;;16.70;;
18114;SDS011;9184;54.390;18.620;2022-09-13T01:37:52;27.60;;;17.13;;
18114;SDS011;9184;54.390;18.620;2022-09-13T01:38:36;25.40;;;16.97;;
18114;SDS011;9184;54.390;18.620;2022-09-13T01:39:09;22.98;;;16.40;;
18114;SDS011;9184;54.390;18.620;2022-09-13T01:39:48;24.40;;;16.60;;
18114;SDS011;9184;54.390;18.620;2022-09-13T01:40:30;23.08;;;16.23;;
18114;SDS011;9184;54.390;18.620;2022-09-13T01:41:10;23.10;;;16.77;;
18114;SDS011;9184;54.390;18.620;2022-09-13T01:41:52;23.92;;;16.65;;
18114;SDS011;9184;54.390;18.620;2022-09-13T01:42:32;22.77;;;16.10;;
18114;SDS011;9184;54.390;18.620;2022-09-13T01:43:10;22.85;;;16.00;;
18114;SDS011;9184;54.390;18.620;2022-09-13T01:43:49;22.83;;;16.58;;
18114;SDS011;9184;54.390;18.620;2022-09-13T01:44:27;21.42;;;16.05;;
18114;SDS011;9184;54.390;18.620;2022-09-13T01:45:02;25.98;;;17.23;;
18114;SDS011;9184;54.390;18.620;2022-09-13T01:45:37;23.38;;;17.20;;
18114;SDS011;9184;54.390;18.620;2022-09-13T01:46:12;24.48;;;16.88;;
18114;SDS011;9184;54.390;18.620;2022-09-13T01:46:45;25.17;;;16.70;;
18114;SDS011;9184;54.390;18.620;2022-09-13T01:47:21;22.63;;;17.35;;
18114;SDS011;9184;54.390;18.620;2022-09-13T01:47:56;25.55;;;16.73;;
18114;SDS011;9184;54.390;18.620;2022-09-13T01:48:31;28.27;;;19.02;;
18114;SDS011;9184;54.390;18.620;2022-09-13T01:49:06;26.60;;;16.88;;
18114;SDS011;9184;54.390;18.620;2022-09-13T01:49:42;24.65;;;17.10;;
18114;SDS011;9184;54.390;18.620;2022-09-13T01:50:16;25.02;;;16.50;;
18114;SDS011;9184;54.390;18.620;2022-09-13T01:50:51;25.30;;;17.92;;
18114;SDS011;9184;54.390;18.620;2022-09-13T01:51:25;25.63;;;18.02;;
18114;SDS011;9184;54.390;18.620;2022-09-13T01:51:58;26.13;;;17.95;;
18114;SDS011;9184;54.390;18.620;2022-09-13T01:52:31;20.95;;;16.25;;
18114;SDS011;9184;54.390;18.620;2022-09-13T01:53:06;28.08;;;18.00;;
18114;SDS011;9184;54.390;18.620;2022-09-13T01:53:39;23.63;;;16.60;;
18114;SDS011;9184;54.390;18.620;2022-09-13T01:54:16;28.83;;;18.02;;
18114;SDS011;9184;54.390;18.620;2022-09-13T01:54:53;24.13;;;17.15;;
18114;SDS011;9184;54.390;18.620;2022-09-13T01:55:28;26.33;;;17.15;;
18114;SDS011;9184;54.390;18.620;2022-09-13T01:56:02;31.67;;;18.08;;
18114;SDS011;9184;54.390;18.620;2022-09-13T01:56:34;22.77;;;16.30;;
18114;SDS011;9184;54.390;18.620;2022-09-13T01:57:11;24.10;;;16.58;;
18114;SDS011;9184;54.390;18.620;2022-09-13T01:57:46;22.73;;;16.25;;
18114;SDS011;9184;54.390;18.620;2022-09-13T01:58:20;22.50;;;16.48;;
18114;SDS011;9184;54.390;18.620;2022-09-13T01:58:54;24.15;;;17.85;;
18114;SDS011;9184;54.390;18.620;2022-09-13T01:59:28;25.10;;;17.23;;
18114;SDS011;9184;54.390;18.620;2022-09-13T02:00:05;23.10;;;16.75;;
18114;SDS011;9184;54.390;18.620;2022-09-13T02:00:43;22.85;;;16.63;;
18114;SDS011;9184;54.390;18.620;2022-09-13T02:01:15;23.98;;;16.25;;
18114;SDS011;9184;54.390;18.620;2022-09-13T02:01:48;23.25;;;17.02;;
18114;SDS011;9184;54.390;18.620;2022-09-13T02:02:25;23.25;;;17.63;;
18114;SDS011;9184;54.390;18.620;2022-09-13T02:03:00;28.52;;;17.17;;
18114;SDS011;9184;54.390;18.620;2022-09-13T02:03:34;22.67;;;16.23;;
18114;SDS011;9184;54.390;18.620;2022-09-13T02:04:07;30.27;;;16.88;;
18114;SDS011;9184;54.390;18.620;2022-09-13T02:04:41;21.73;;;16.08;;
18114;SDS011;9184;54.390;18.620;2022-09-13T02:05:13;21.67;;;16.38;;
18114;SDS011;9184;54.390;18.620;2022-09-13T02:05:49;23.23;;;16.13;;
18114;SDS011;9184;54.390;18.620;2022-09-13T02:06:22;24.42;;;15.88;;
18114;SDS011;9184;54.390;18.620;2022-09-13T02:06:56;18.92;;;15.55;;
18114;SDS011;9184;54.390;18.620;2022-09-13T02:07:31;25.50;;;15.77;;
18114;SDS011;9184;54.390;18.620;2022-09-13T02:08:06;23.20;;;16.58;;
18114;SDS011;9184;54.390;18.620;2022-09-13T02:08:39;22.40;;;16.25;;
18114;SDS011;9184;54.390;18.620;2022-09-13T02:09:10;22.48;;;16.63;;
18114;SDS011;9184;54.390;18.620;2022-09-13T02:09:44;25.35;;;17.35;;
18114;SDS011;9184;54.390;18.620;2022-09-13T02:10:17;24.23;;;16.95;;
18114;SDS011;9184;54.390;18.620;2022-09-13T02:10:50;21.77;;;15.05;;
18114;SDS011;9184;54.390;18.620;2022-09-13T02:11:24;25.95;;;16.73;;
18114;SDS011;9184;54.390;18.620;2022-09-13T02:11:55;22.45;;;16.38;;
18114;SDS011;9184;54.390;18.620;2022-09-13T02:12:29;26.65;;;16.83;;
18114;SDS011;9184;54.390;18.620;2022-09-13T02:13:02;26.23;;;18.40;;
18114;SDS011;9184;54.390;18.620;2022-09-13T02:13:35;25.63;;;18.10;;
18114;SDS011;9184;54.390;18.620;2022-09-13T02:14:08;23.80;;;16.60;;
18114;SDS011;9184;54.390;18.620;2022-09-13T02:14:42;20.35;;;16.00;;
18114;SDS011;9184;54.390;18.620;2022-09-13T02:15:13;22.98;;;15.90;;
18114;SDS011;9184;54.390;18.620;2022-09-13T02:15:47;23.23;;;16.98;;
18114;SDS011;9184;54.390;18.620;2022-09-13T02:16:20;20.85;;;15.55;;
18114;SDS011;9184;54.390;18.620;2022-09-13T02:16:55;22.02;;;15.27;;
18114;SDS011;9184;54.390;18.620;2022-09-13T02:17:27;23.52;;;16.90;;
18114;SDS011;9184;54.390;18.620;2022-09-13T02:18:01;21.92;;;15.73;;
18114;SDS011;9184;54.390;18.620;2022-09-13T02:18:36;25.02;;;15.45;;
18114;SDS011;9184;54.390;18.620;2022-09-13T02:19:09;23.08;;;15.18;;
18114;SDS011;9184;54.390;18.620;2022-09-13T02:19:44;20.30;;;15.45;;
18114;SDS011;9184;54.390;18.620;2022-09-13T02:20:19;21.02;;;15.45;;
18114;SDS011;9184;54.390;18.620;2022-09-13T02:20:50;17.95;;;14.90;;
18114;SDS011;9184;54.390;18.620;2022-09-13T02:21:23;20.65;;;14.50;;
18114;SDS011;9184;54.390;18.620;2022-09-13T02:21:57;18.30;;;13.80;;
18114;SDS011;9184;54.390;18.620;2022-09-13T02:22:30;20.65;;;15.05;;
18114;SDS011;9184;54.390;18.620;2022-09-13T02:23:02;23.20;;;14.32;;
18114;SDS011;9184;54.390;18.620;2022-09-13T02:23:36;21.80;;;15.32;;
18114;SDS011;9184;54.390;18.620;2022-09-13T02:24:10;16.80;;;13.55;;
18114;SDS011;9184;54.390;18.620;2022-09-13T02:24:43;22.10;;;14.63;;
18114;SDS011;9184;54.390;18.620;2022-09-13T02:25:16;20.15;;;14.13;;
18114;SDS011;9184;54.390;18.620;2022-09-13T02:25:48;20.90;;;14.27;;
18114;SDS011;9184;54.390;18.620;2022-09-13T02:26:19;16.15;;;13.18;;
18114;SDS011;9184;54.390;18.620;2022-09-13T02:26:52;16.25;;;13.57;;
18114;SDS011;9184;54.390;18.620;2022-09-13T02:27:24;19.77;;;13.57;;
18114;SDS011;9184;54.390;18.620;2022-09-13T02:27:57;18.17;;;13.13;;
18114;SDS011;9184;54.390;18.620;2022-09-13T02:28:31;19.70;;;13.20;;
18114;SDS011;9184;54.390;18.620;2022-09-13T02:29:04;17.27;;;12.65;;
18114;SDS011;9184;54.390;18.620;2022-09-13T02:29:38;17.30;;;13.23;;
18114;SDS011;9184;54.390;18.620;2022-09-13T02:30:09;17.05;;;11.63;;
18114;SDS011;9184;54.390;18.620;2022-09-13T02:30:42;16.10;;;12.05;;
18114;SDS011;9184;54.390;18.620;2022-09-13T02:31:16;20.13;;;11.82;;
18114;SDS011;9184;54.390;18.620;2022-09-13T02:31:48;14.85;;;11.43;;
18114;SDS011;9184;54.390;18.620;2022-09-13T02:32:22;21.33;;;11.70;;
18114;SDS011;9184;54.390;18.620;2022-09-13T02:32:54;17.85;;;10.50;;
18114;SDS011;9184;54.390;18.620;2022-09-13T02:33:27;14.00;;;11.35;;
18114;SDS011;9184;54.390;18.620;2022-09-13T02:34:01;15.48;;;11.05;;
18114;SDS011;9184;54.390;18.620;2022-09-13T02:34:33;14.07;;;10.52;;
18114;SDS011;9184;54.390;18.620;2022-09-13T02:35:07;15.38;;;11.13;;
18114;SDS011;9184;54.390;18.620;2022-09-13T02:35:42;13.77;;;10.73;;
18114;SDS011;9184;54.390;18.620;2022-09-13T02:36:15;14.95;;;10.00;;
18114;SDS011;9184;54.390;18.620;2022-09-13T02:36:48;11.30;;;9.48;;
18114;SDS011;9184;54.390;18.620;2022-09-13T02:37:22;17.30;;;10.02;;
18114;SDS011;9184;54.390;18.620;2022-09-13T02:37:56;16.45;;;9.93;;
18114;SDS011;9184;54.390;18.620;2022-09-13T02:38:28;12.93;;;10.32;;
18114;SDS011;9184;54.390;18.620;2022-09-13T02:39:02;13.63;;;10.10;;
18114;SDS011;9184;54.390;18.620;2022-09-13T02:39:32;14.65;;;10.23;;
18114;SDS011;9184;54.390;18.620;2022-09-13T02:40:06;14.43;;;10.63;;
18114;SDS011;9184;54.390;18.620;2022-09-13T02:40:40;12.85;;;9.95;;
18114;SDS011;9184;54.390;18.620;2022-09-13T02:41:16;11.68;;;10.38;;
18114;SDS011;9184;54.390;18.620;2022-09-13T02:41:49;13.05;;;10.48;;
18114;SDS011;9184;54.390;18.620;2022-09-13T02:42:25;14.43;;;10.25;;
18114;SDS011;9184;54.390;18.620;2022-09-13T02:43:00;14.02;;;11.00;;
18114;SDS011;9184;54.390;18.620;2022-09-13T02:43:34;13.63;;;10.13;;
18114;SDS011;9184;54.390;18.620;2022-09-13T02:44:08;12.70;;;10.13;;
18114;SDS011;9184;54.390;18.620;2022-09-13T02:44:41;15.90;;;10.57;;
18114;SDS011;9184;54.390;18.620;2022-09-13T02:45:12;10.43;;;9.15;;
18114;SDS011;9184;54.390;18.620;2022-09-13T02:45:45;18.63;;;10.23;;
18114;SDS011;9184;54.390;18.620;2022-09-13T02:46:20;14.00;;;9.85;;
18114;SDS011;9184;54.390;18.620;2022-09-13T02:47:03;17.27;;;9.35;;
18114;SDS011;9184;54.390;18.620;2022-09-13T02:47:39;13.43;;;10.07;;
18114;SDS011;9184;54.390;18.620;2022-09-13T02:48:14;14.05;;;10.48;;
18114;SDS011;9184;54.390;18.620;2022-09-13T02:48:49;10.73;;;8.73;;
18114;SDS011;9184;54.390;18.620;2022-09-13T02:49:22;11.45;;;9.88;;
18114;SDS011;9184;54.390;18.620;2022-09-13T02:49:57;11.75;;;9.80;;
18114;SDS011;9184;54.390;18.620;2022-09-13T02:50:33;14.45;;;10.80;;
18114;SDS011;9184;54.390;18.620;2022-09-13T02:51:06;12.77;;;9.57;;
18114;SDS011;9184;54.390;18.620;2022-09-13T02:51:43;13.77;;;10.35;;
18114;SDS011;9184;54.390;18.620;2022-09-13T02:52:19;11.55;;;9.15;;
18114;SDS011;9184;54.390;18.620;2022-09-13T02:52:56;12.85;;;9.25;;
18114;SDS011;9184;54.390;18.620;2022-09-13T02:53:32;10.75;;;9.07;;
18114;SDS011;9184;54.390;18.620;2022-09-13T02:54:08;11.02;;;8.88;;
18114;SDS011;9184;54.390;18.620;2022-09-13T02:54:48;11.57;;;9.38;;
18114;SDS011;9184;54.390;18.620;2022-09-13T02:55:20;10.38;;;9.25;;
18114;SDS011;9184;54.390;18.620;2022-09-13T02:55:53;11.50;;;9.45;;
18114;SDS011;9184;54.390;18.620;2022-09-13T02:56:28;11.07;;;9.05;;
18114;SDS011;9184;54.390;18.620;2022-09-13T02:57:00;12.40;;;8.70;;
18114;SDS011;9184;54.390;18.620;2022-09-13T02:57:35;15.02;;;9.35;;
18114;SDS011;9184;54.390;18.620;2022-09-13T02:58:08;16.38;;;9.02;;
18114;SDS011;9184;54.390;18.620;2022-09-13T02:58:43;11.43;;;8.80;;
18114;SDS011;9184;54.390;18.620;2022-09-13T02:59:15;10.05;;;8.50;;
18114;SDS011;9184;54.390;18.620;2022-09-13T02:59:47;13.32;;;8.88;;
18114;SDS011;9184;54.390;18.620;2022-09-13T03:00:18;9.88;;;8.50;;
18114;SDS011;9184;54.390;18.620;2022-09-13T03:00:49;15.40;;;8.93;;
18114;SDS011;9184;54.390;18.620;2022-09-13T03:01:21;11.13;;;9.00;;
18114;SDS011;9184;54.390;18.620;2022-09-13T03:01:55;10.18;;;8.55;;
18114;SDS011;9184;54.390;18.620;2022-09-13T03:02:28;13.82;;;8.40;;
18114;SDS011;9184;54.390;18.620;2022-09-13T03:03:02;13.68;;;9.00;;
18114;SDS011;9184;54.390;18.620;2022-09-13T03:03:34;11.07;;;9.05;;
18114;SDS011;9184;54.390;18.620;2022-09-13T03:04:04;10.55;;;8.48;;
18114;SDS011;9184;54.390;18.620;2022-09-13T03:04:35;12.55;;;8.43;;
18114;SDS011;9184;54.390;18.620;2022-09-13T03:05:06;13.70;;;9.00;;
18114;SDS011;9184;54.390;18.620;2022-09-13T03:05:37;11.93;;;8.93;;
18114;SDS011;9184;54.390;18.620;2022-09-13T03:06:07;11.48;;;9.73;;
18114;SDS011;9184;54.390;18.620;2022-09-13T03:06:39;13.27;;;9.23;;
18114;SDS011;9184;54.390;18.620;2022-09-13T03:07:10;14.23;;;9.93;;
18114;SDS011;9184;54.390;18.620;2022-09-13T03:07:40;12.52;;;10.13;;
18114;SDS011;9184;54.390;18.620;2022-09-13T03:08:12;12.90;;;9.57;;
18114;SDS011;9184;54.390;18.620;2022-09-13T03:08:43;13.52;;;9.52;;
18114;SDS011;9184;54.390;18.620;2022-09-13T03:09:13;15.35;;;9.63;;
18114;SDS011;9184;54.390;18.620;2022-09-13T03:09:45;15.38;;;10.95;;
18114;SDS011;9184;54.390;18.620;2022-09-13T03:10:19;16.20;;;9.88;;
18114;SDS011;9184;54.390;18.620;2022-09-13T03:10:55;12.32;;;9.65;;
18114;SDS011;9184;54.390;18.620;2022-09-13T03:11:32;12.25;;;9.52;;
18114;SDS011;9184;54.390;18.620;2022-09-13T03:12:09;11.43;;;9.48;;
18114;SDS011;9184;54.390;18.620;2022-09-13T03:13:02;12.98;;;9.80;;
18114;SDS011;9184;54.390;18.620;2022-09-13T03:13:39;13.38;;;9.73;;
18114;SDS011;9184;54.390;18.620;2022-09-13T03:14:19;14.68;;;11.20;;
18114;SDS011;9184;54.390;18.620;2022-09-13T03:14:54;15.35;;;11.05;;
18114;SDS011;9184;54.390;18.620;2022-09-13T03:15:29;12.57;;;9.68;;
18114;SDS011;9184;54.390;18.620;2022-09-13T03:16:05;14.20;;;11.23;;
18114;SDS011;9184;54.390;18.620;2022-09-13T03:16:53;15.50;;;12.25;;
18114;SDS011;9184;54.390;18.620;2022-09-13T03:17:31;15.30;;;10.35;;
18114;SDS011;9184;54.390;18.620;2022-09-13T03:18:06;15.15;;;10.48;;
18114;SDS011;9184;54.390;18.620;2022-09-13T03:18:50;13.48;;;11.00;;
18114;SDS011;9184;54.390;18.620;2022-09-13T03:19:30;18.13;;;11.00;;